createdAt,value
2023-01-19T00:01:04.000Z,7.65
2023-01-19T00:04:29.988Z,6.87
2023-01-19T00:07:55.398Z,8.27
2023-01-19T00:11:21.147Z,7.80
2023-01-19T00:14:46.545Z,7.95
2023-01-19T00:18:14.528Z,8.75
2023-01-19T00:21:39.423Z,7.87
2023-01-19T00:25:05.057Z,8.30
2023-01-19T00:28:29.971Z,9.85
2023-01-19T00:31:55.693Z,7.80
2023-01-19T00:35:22.979Z,9.10
2023-01-19T00:38:50.903Z,7.90
2023-01-19T00:42:33.047Z,8.90
2023-01-19T00:45:59.210Z,8.98
2023-01-19T00:49:26.810Z,7.50
2023-01-19T00:52:55.471Z,8.98
2023-01-19T00:56:20.406Z,6.10
2023-01-19T00:59:46.470Z,6.37
2023-01-19T01:03:12.269Z,7.80
2023-01-19T01:06:38.304Z,9.15
2023-01-19T01:10:05.144Z,8.70
2023-01-19T01:13:31.352Z,8.13
2023-01-19T01:16:57.001Z,8.18
2023-01-19T01:20:23.669Z,6.85
2023-01-19T01:23:49.165Z,7.83
2023-01-19T01:27:16.833Z,7.78
2023-01-19T01:30:42.019Z,7.15
2023-01-19T01:34:08.173Z,8.60
2023-01-19T01:37:33.881Z,10.67
2023-01-19T01:41:00.336Z,7.15
2023-01-19T01:44:51.658Z,6.35
2023-01-19T01:48:18.736Z,6.57
2023-01-19T01:51:45.773Z,6.47
2023-01-19T01:55:12.161Z,6.03
2023-01-19T01:58:37.730Z,5.40
2023-01-19T02:02:24.440Z,5.62
2023-01-19T02:05:50.781Z,4.35
2023-01-19T02:09:33.195Z,3.75
2023-01-19T02:13:15.813Z,4.05
2023-01-19T02:16:42.577Z,5.33
2023-01-19T02:20:11.571Z,4.25
2023-01-19T02:23:45.892Z,4.28
2023-01-19T02:27:11.586Z,5.25
2023-01-19T02:30:36.747Z,4.33
2023-01-19T02:34:02.996Z,4.80
2023-01-19T02:37:29.546Z,5.20
2023-01-19T02:41:00.454Z,4.70
2023-01-19T02:44:25.971Z,3.75
2023-01-19T02:47:52.829Z,3.85
2023-01-19T02:51:18.129Z,4.37
2023-01-19T02:54:49.587Z,3.37
2023-01-19T02:58:18.526Z,5.30
2023-01-19T03:01:52.127Z,4.57
2023-01-19T03:05:32.043Z,3.20
2023-01-19T03:09:01.351Z,3.60
2023-01-19T03:12:29.860Z,3.63
2023-01-19T03:15:58.609Z,3.95
2023-01-19T03:19:25.687Z,3.58
2023-01-19T03:22:51.672Z,6.97
2023-01-19T03:26:18.978Z,4.10
2023-01-19T03:29:45.825Z,4.65
2023-01-19T03:33:14.242Z,3.92
2023-01-19T03:36:42.495Z,5.03
2023-01-19T03:40:08.126Z,4.18
2023-01-19T03:43:33.739Z,3.97
2023-01-19T03:46:59.265Z,4.40
2023-01-19T03:50:29.507Z,3.70
2023-01-19T03:53:54.489Z,4.55
2023-01-19T03:57:20.415Z,3.70
2023-01-19T04:00:45.630Z,5.95
2023-01-19T04:04:11.458Z,4.05
2023-01-19T04:07:38.834Z,2.83
2023-01-19T04:11:04.753Z,4.03
2023-01-19T04:14:29.863Z,3.72
2023-01-19T04:17:56.291Z,3.15
2023-01-19T04:21:21.507Z,3.67
2023-01-19T04:24:49.178Z,3.17
2023-01-19T04:28:14.645Z,3.95
2023-01-19T04:31:41.226Z,3.30
2023-01-19T04:35:07.260Z,3.80
2023-01-19T04:38:32.748Z,3.30
2023-01-19T04:41:59.460Z,2.75
2023-01-19T04:45:24.738Z,3.22
2023-01-19T04:48:50.107Z,3.03
2023-01-19T04:52:18.544Z,2.85
2023-01-19T04:55:43.142Z,3.10
2023-01-19T04:59:10.906Z,3.10
2023-01-19T05:02:36.474Z,3.10
2023-01-19T05:06:01.890Z,2.37
2023-01-19T05:09:28.087Z,3.72
2023-01-19T05:12:53.712Z,6.07
2023-01-19T05:16:21.027Z,5.75
2023-01-19T05:19:46.577Z,4.32
2023-01-19T05:23:12.116Z,3.58
2023-01-19T05:26:38.441Z,3.28
2023-01-19T05:30:03.718Z,2.50
2023-01-19T05:33:31.113Z,2.62
2023-01-19T05:36:56.627Z,3.47
2023-01-19T05:40:22.351Z,4.18
2023-01-19T05:43:47.570Z,6.22
2023-01-19T05:47:13.906Z,6.07
2023-01-19T05:50:40.457Z,5.32
2023-01-19T05:54:06.370Z,5.05
2023-01-19T05:57:32.543Z,4.68
2023-01-19T06:00:58.599Z,4.47
2023-01-19T06:04:24.278Z,3.47
2023-01-19T06:07:51.435Z,6.20
2023-01-19T06:11:17.246Z,7.18
2023-01-19T06:14:42.393Z,6.57
2023-01-19T06:18:08.347Z,7.45
2023-01-19T06:21:35.034Z,6.43
2023-01-19T06:25:05.054Z,5.53
2023-01-19T06:28:30.609Z,6.07
2023-01-19T06:31:58.861Z,4.78
2023-01-19T06:35:24.477Z,5.82
2023-01-19T06:38:50.616Z,5.73
2023-01-19T06:42:17.348Z,5.80
2023-01-19T06:45:45.205Z,4.90
2023-01-19T06:49:11.180Z,5.32
2023-01-19T06:52:42.835Z,4.00
2023-01-19T06:56:09.714Z,4.70
2023-01-19T06:59:37.537Z,8.55
2023-01-19T07:03:03.259Z,17.17
2023-01-19T07:06:29.727Z,11.52
2023-01-19T07:09:55.128Z,9.17
2023-01-19T07:13:20.532Z,6.03
2023-01-19T07:16:47.323Z,5.70
2023-01-19T07:20:15.062Z,5.50
2023-01-19T07:23:40.981Z,5.67
2023-01-19T07:27:08.248Z,4.50
2023-01-19T07:30:34.043Z,6.35
2023-01-19T07:34:01.940Z,7.30
2023-01-19T07:37:30.366Z,4.90
2023-01-19T07:41:03.135Z,8.65
2023-01-19T07:44:28.125Z,8.93
2023-01-19T07:47:53.770Z,6.43
2023-01-19T07:51:19.983Z,7.73
2023-01-19T07:54:46.214Z,4.93
2023-01-19T07:58:11.452Z,11.95
2023-01-19T08:01:37.518Z,8.80
2023-01-19T08:05:03.104Z,8.30
2023-01-19T08:08:31.563Z,9.65
2023-01-19T08:11:57.184Z,5.03
2023-01-19T08:15:24.770Z,6.25
2023-01-19T08:18:51.193Z,5.07
2023-01-19T08:22:16.193Z,5.05
2023-01-19T08:25:45.395Z,6.10
2023-01-19T08:29:10.606Z,5.13
2023-01-19T08:32:37.366Z,4.90
2023-01-19T08:36:03.085Z,4.37
2023-01-19T08:39:29.111Z,7.78
2023-01-19T08:42:56.058Z,4.03
2023-01-19T08:46:22.437Z,4.47
2023-01-19T08:49:48.766Z,4.95
2023-01-19T08:53:14.463Z,5.00
2023-01-19T08:56:41.108Z,6.07
2023-01-19T09:00:10.008Z,17.70
2023-01-19T09:03:35.523Z,9.10
2023-01-19T09:07:01.862Z,18.95
2023-01-19T09:10:29.158Z,4.57
2023-01-19T09:13:56.277Z,7.70
2023-01-19T09:17:23.331Z,7.60
2023-01-19T09:20:49.571Z,14.43
2023-01-19T09:24:15.109Z,8.43
2023-01-19T09:27:41.420Z,12.63
2023-01-19T09:31:09.081Z,10.27
2023-01-19T09:34:36.249Z,13.85
2023-01-19T09:38:02.231Z,9.90
2023-01-19T09:41:28.310Z,10.13
2023-01-19T09:44:55.260Z,6.07
2023-01-19T09:48:29.514Z,10.80
2023-01-19T09:51:56.961Z,16.67
2023-01-19T09:55:24.187Z,9.88
2023-01-19T09:58:50.550Z,12.07
2023-01-19T10:02:25.693Z,7.03
2023-01-19T10:05:52.032Z,7.27
2023-01-19T10:09:25.163Z,7.47
2023-01-19T10:13:02.478Z,12.93
2023-01-19T10:16:32.783Z,9.65
2023-01-19T10:20:00.321Z,7.73
2023-01-19T10:23:35.668Z,10.15
2023-01-19T10:27:03.861Z,11.60
2023-01-19T10:30:30.487Z,14.13
2023-01-19T10:33:56.663Z,11.50
2023-01-19T10:37:31.170Z,11.80
2023-01-19T10:40:59.948Z,15.48
2023-01-19T10:44:31.433Z,12.25
2023-01-19T10:48:00.421Z,11.17
2023-01-19T10:51:25.314Z,8.57
2023-01-19T10:54:51.777Z,11.38
2023-01-19T10:58:32.976Z,15.38
2023-01-19T11:02:16.097Z,11.73
2023-01-19T11:05:42.914Z,6.95
2023-01-19T11:09:15.200Z,15.32
2023-01-19T11:12:43.395Z,12.15
2023-01-19T11:16:12.447Z,8.70
2023-01-19T11:19:38.818Z,5.40
2023-01-19T11:23:08.742Z,8.52
2023-01-19T11:26:35.502Z,6.82
2023-01-19T11:30:06.220Z,6.27
2023-01-19T11:33:36.786Z,9.32
2023-01-19T11:37:05.552Z,15.50
2023-01-19T11:40:33.148Z,15.13
2023-01-19T11:44:00.580Z,14.50
2023-01-19T11:47:28.251Z,17.17
2023-01-19T11:50:57.163Z,10.90
2023-01-19T11:54:25.662Z,8.10
2023-01-19T11:57:54.289Z,18.10
2023-01-19T12:01:25.633Z,12.93
2023-01-19T12:04:51.615Z,10.23
2023-01-19T12:08:18.910Z,10.07
2023-01-19T12:11:48.077Z,11.03
2023-01-19T12:15:19.834Z,9.27
2023-01-19T12:18:46.901Z,12.23
2023-01-19T12:22:14.682Z,15.18
2023-01-19T12:25:54.730Z,9.80
2023-01-19T12:29:22.551Z,11.05
2023-01-19T12:32:48.841Z,13.43
2023-01-19T12:36:15.113Z,10.23
2023-01-19T12:39:48.521Z,9.37
2023-01-19T12:43:17.410Z,12.35
2023-01-19T12:46:44.935Z,13.00
2023-01-19T12:50:14.120Z,15.70
2023-01-19T12:53:40.415Z,12.27
2023-01-19T12:57:11.731Z,14.55
2023-01-19T13:00:39.625Z,13.85
2023-01-19T13:04:09.782Z,14.68
2023-01-19T13:08:08.643Z,15.17
2023-01-19T13:11:34.762Z,14.80
2023-01-19T13:15:31.114Z,13.30
2023-01-19T13:18:57.545Z,17.10
2023-01-19T13:22:55.455Z,16.77
2023-01-19T13:26:22.055Z,12.00
2023-01-19T13:29:48.443Z,16.95
2023-01-19T13:33:18.324Z,16.25
2023-01-19T13:36:46.402Z,18.30
2023-01-19T13:40:20.455Z,13.85
2023-01-19T13:43:46.465Z,18.62
2023-01-19T13:47:13.925Z,14.35
2023-01-19T13:50:40.461Z,11.20
2023-01-19T13:54:06.901Z,10.98
2023-01-19T13:57:35.187Z,10.52
2023-01-19T14:01:01.857Z,10.20
2023-01-19T14:04:31.848Z,13.88
2023-01-19T14:08:04.751Z,15.00
2023-01-19T14:11:31.135Z,17.95
2023-01-19T14:14:57.950Z,15.05
2023-01-19T14:18:27.521Z,22.43
2023-01-19T14:22:02.419Z,17.48
2023-01-19T14:25:32.510Z,12.45
2023-01-19T14:28:58.233Z,6.90
2023-01-19T14:32:26.002Z,11.68
2023-01-19T14:35:50.916Z,17.12
2023-01-19T14:39:19.079Z,14.82
2023-01-19T14:42:47.927Z,9.88
2023-01-19T14:46:19.722Z,17.27
2023-01-19T14:49:50.023Z,13.07
2023-01-19T14:53:19.193Z,13.45
2023-01-19T14:56:44.199Z,14.45
2023-01-19T15:00:19.097Z,16.17
2023-01-19T15:03:45.810Z,11.18
2023-01-19T15:07:20.614Z,15.95
2023-01-19T15:10:45.962Z,17.45
2023-01-19T15:14:13.408Z,12.20
2023-01-19T15:17:39.016Z,15.77
2023-01-19T15:21:04.938Z,19.52
2023-01-19T15:24:31.960Z,18.58
2023-01-19T15:27:59.772Z,19.97
2023-01-19T15:31:26.860Z,20.83
2023-01-19T15:34:52.845Z,23.73
2023-01-19T15:38:20.524Z,18.60
2023-01-19T15:41:47.779Z,20.70
2023-01-19T15:45:37.332Z,15.05
2023-01-19T15:49:06.161Z,16.10
2023-01-19T15:52:32.188Z,15.35
2023-01-19T15:55:58.219Z,20.37
2023-01-19T15:59:24.869Z,18.02
2023-01-19T16:02:53.537Z,12.05
2023-01-19T16:06:20.296Z,22.45
2023-01-19T16:09:45.611Z,19.97
2023-01-19T16:13:11.748Z,17.33
2023-01-19T16:16:39.330Z,21.48
2023-01-19T16:20:05.549Z,19.45
2023-01-19T16:23:32.299Z,18.47
2023-01-19T16:27:01.526Z,23.05
2023-01-19T16:30:26.867Z,14.63
2023-01-19T16:33:54.387Z,22.05
2023-01-19T16:37:19.902Z,24.00
2023-01-19T16:40:46.884Z,23.67
2023-01-19T16:44:13.807Z,26.87
2023-01-19T16:47:40.479Z,22.52
2023-01-19T16:51:07.823Z,20.60
2023-01-19T16:54:33.678Z,23.50
2023-01-19T16:57:59.262Z,24.42
2023-01-19T17:01:25.859Z,25.23
2023-01-19T17:04:51.426Z,16.37
2023-01-19T17:08:21.243Z,22.35
2023-01-19T17:11:47.606Z,24.80
2023-01-19T17:15:16.879Z,21.05
2023-01-19T17:18:42.921Z,20.40
2023-01-19T17:22:09.053Z,26.77
2023-01-19T17:25:37.133Z,27.08
2023-01-19T17:29:04.723Z,20.73
2023-01-19T17:32:31.157Z,29.40
2023-01-19T17:35:58.492Z,24.55
2023-01-19T17:39:24.524Z,19.05
2023-01-19T17:42:54.751Z,22.58
2023-01-19T17:46:22.970Z,27.07
2023-01-19T17:49:50.603Z,16.87
2023-01-19T17:53:21.239Z,20.15
2023-01-19T17:56:48.505Z,19.58
2023-01-19T18:00:18.427Z,26.37
2023-01-19T18:03:46.709Z,17.55
2023-01-19T18:07:13.554Z,13.25
2023-01-19T18:10:41.317Z,18.33
2023-01-19T18:14:08.788Z,18.80
2023-01-19T18:17:38.306Z,19.30
2023-01-19T18:21:05.562Z,19.37
2023-01-19T18:24:33.230Z,22.10
2023-01-19T18:28:00.457Z,16.57
2023-01-19T18:31:33.520Z,14.27
2023-01-19T18:35:01.661Z,16.05
2023-01-19T18:38:32.198Z,16.10
2023-01-19T18:42:01.125Z,20.17
2023-01-19T18:45:37.938Z,15.23
2023-01-19T18:49:04.930Z,20.98
2023-01-19T18:52:39.082Z,18.30
2023-01-19T18:56:06.929Z,14.83
2023-01-19T18:59:35.635Z,16.25
2023-01-19T19:03:02.833Z,23.02
2023-01-19T19:06:31.193Z,21.87
2023-01-19T19:09:59.958Z,18.13
2023-01-19T19:13:26.306Z,18.37
2023-01-19T19:16:55.477Z,22.17
2023-01-19T19:20:23.782Z,17.80
2023-01-19T19:23:54.637Z,12.55
2023-01-19T19:27:36.840Z,13.00
2023-01-19T19:31:11.776Z,14.65
2023-01-19T19:34:40.160Z,14.33
2023-01-19T19:38:08.677Z,15.68
2023-01-19T19:41:52.405Z,13.70
2023-01-19T19:45:21.550Z,22.58
2023-01-19T19:48:53.866Z,16.33
2023-01-19T19:52:25.541Z,14.48
2023-01-19T19:56:16.643Z,16.87
2023-01-19T19:59:45.766Z,16.55
2023-01-19T20:03:15.651Z,11.20
2023-01-19T20:06:45.846Z,9.95
2023-01-19T20:10:14.083Z,20.95
2023-01-19T20:13:45.257Z,13.45
2023-01-19T20:17:13.117Z,19.37
2023-01-19T20:20:43.143Z,16.25
2023-01-19T20:24:10.538Z,17.40
2023-01-19T20:27:38.372Z,13.75
2023-01-19T20:31:13.360Z,21.07
2023-01-19T20:34:43.558Z,15.50
2023-01-19T20:38:12.029Z,19.77
2023-01-19T20:41:45.224Z,18.00
2023-01-19T20:45:14.430Z,17.63
2023-01-19T20:48:42.919Z,16.73
2023-01-19T20:52:17.558Z,18.95
2023-01-19T20:56:00.183Z,9.85
2023-01-19T20:59:30.016Z,22.97
2023-01-19T21:02:57.741Z,16.00
2023-01-19T21:06:23.790Z,18.80
2023-01-19T21:09:51.877Z,18.08
2023-01-19T21:13:19.953Z,18.97
2023-01-19T21:16:46.863Z,19.15
2023-01-19T21:20:14.267Z,18.83
2023-01-19T21:23:40.954Z,20.08
2023-01-19T21:27:07.695Z,22.00
2023-01-19T21:30:35.599Z,19.95
2023-01-19T21:34:04.018Z,16.62
2023-01-19T21:37:32.540Z,19.73
2023-01-19T21:40:57.714Z,19.50
2023-01-19T21:44:23.951Z,18.75
2023-01-19T21:47:51.008Z,16.48
2023-01-19T21:51:16.952Z,20.40
2023-01-19T21:54:41.948Z,23.17
2023-01-19T21:58:08.492Z,20.83
2023-01-19T22:01:33.770Z,19.73
2023-01-19T22:05:01.567Z,17.52
2023-01-19T22:08:26.795Z,21.80
2023-01-19T22:11:52.843Z,21.00
2023-01-19T22:15:18.097Z,23.10
2023-01-19T22:18:44.070Z,20.33
2023-01-19T22:22:11.105Z,16.43
2023-01-19T22:25:36.405Z,21.80
2023-01-19T22:29:03.062Z,19.67
2023-01-19T22:32:28.784Z,17.95
2023-01-19T22:35:54.004Z,20.10
2023-01-19T22:39:21.059Z,18.02
2023-01-19T22:42:48.931Z,20.08
2023-01-19T22:46:14.806Z,18.98
2023-01-19T22:49:40.167Z,19.02
2023-01-19T22:53:06.093Z,20.73
2023-01-19T22:56:33.976Z,17.75
2023-01-19T23:00:00.106Z,19.40
2023-01-19T23:03:25.827Z,18.03
2023-01-19T23:06:53.903Z,19.27
2023-01-19T23:10:20.138Z,20.75
2023-01-19T23:13:47.750Z,19.17
2023-01-19T23:17:13.661Z,16.52
2023-01-19T23:20:39.742Z,15.77
2023-01-19T23:24:05.486Z,15.68
2023-01-19T23:27:31.715Z,15.77
2023-01-19T23:30:58.879Z,16.98
2023-01-19T23:34:24.476Z,16.60
2023-01-19T23:37:51.142Z,18.62
2023-01-19T23:41:17.279Z,15.90
2023-01-19T23:44:44.620Z,19.10
2023-01-19T23:48:12.022Z,15.43
2023-01-19T23:51:37.312Z,18.62
2023-01-19T23:55:03.444Z,18.25
2023-01-19T23:58:29.380Z,21.87
